Time;durP1;ratioP1;P1;durP2;ratioP2;P2;SDS_P1;SDS_P2;PMS_P1;PMS_P2;Temp;Humidity;BMP_temperature;BMP_pressure;BME280_temperature;BME280_humidity;BME280_pressure;Samples;Min_cycle;Max_cycle;Signal;HPM_P1;HPM_P2
2022/04/07 00:00:34;;;;;;;7.85;4.62;;;;;;;11.52;69.65;98438.80;2825940;80;21575;-87
2022/04/07 00:04:37;;;;;;;10.80;5.42;;;;;;;11.46;69.92;98435.00;2802550;80;21604;-86
2022/04/07 00:08:40;;;;;;;10.05;6.00;;;;;;;11.39;70.08;98428.70;2781126;81;21051;-85
2022/04/07 00:12:42;;;;;;;7.62;5.70;;;;;;;11.28;70.58;98424.14;2837263;80;21611;-86
2022/04/07 00:16:43;;;;;;;8.40;5.03;;;;;;;11.25;70.55;98427.16;2796851;82;21026;-86
2022/04/07 00:20:45;;;;;;;5.17;4.55;;;;;;;11.16;70.79;98414.88;2810415;81;21035;-85
2022/04/07 00:24:46;;;;;;;8.20;5.00;;;;;;;11.09;70.92;98416.08;2839099;81;21031;-85
2022/04/07 00:28:47;;;;;;;5.72;4.75;;;;;;;11.02;71.16;98411.66;2791610;82;21599;-85
2022/04/07 00:32:50;;;;;;;6.62;4.25;;;;;;;10.95;71.47;98411.01;2817180;82;21045;-85
2022/04/07 00:36:51;;;;;;;6.65;4.65;;;;;;;10.97;71.49;98408.19;2798550;80;21171;-85
2022/04/07 00:40:53;;;;;;;6.75;4.78;;;;;;;10.97;71.68;98398.36;2851246;80;21041;-85
2022/04/07 00:44:54;;;;;;;6.22;4.35;;;;;;;10.99;71.74;98396.35;2812618;80;20997;-84
2022/04/07 00:48:56;;;;;;;8.90;5.92;;;;;;;10.99;72.06;98395.54;2809760;82;21001;-85
2022/04/07 00:53:00;;;;;;;8.95;5.75;;;;;;;11.01;71.94;98386.88;2796920;81;21075;-84
2022/04/07 00:57:02;;;;;;;6.35;5.70;;;;;;;11.02;72.02;98386.39;2815927;81;21009;-85
2022/04/07 01:01:03;;;;;;;8.93;6.22;;;;;;;11.00;72.15;98382.08;2796077;81;21049;-85
2022/04/07 01:05:07;;;;;;;5.67;4.30;;;;;;;11.00;72.23;98378.08;2792755;82;21092;-85
2022/04/07 01:09:10;;;;;;;6.58;4.53;;;;;;;10.96;72.50;98379.93;2851199;81;21087;-85
2022/04/07 01:13:13;;;;;;;6.03;4.17;;;;;;;10.90;72.70;98377.46;2843042;81;21051;-85
2022/04/07 01:17:14;;;;;;;8.73;4.03;;;;;;;10.84;72.97;98372.33;2804537;82;21040;-85
2022/04/07 01:21:17;;;;;;;5.87;4.20;;;;;;;10.81;72.90;98364.71;2797484;81;21488;-86
2022/04/07 01:25:19;;;;;;;3.83;3.50;;;;;;;10.80;72.70;98362.21;2813287;82;21023;-86
2022/04/07 01:29:25;;;;;;;5.58;4.65;;;;;;;10.84;72.63;98363.55;2810164;81;21024;-85
2022/04/07 01:33:24;;;;;;;7.87;4.45;;;;;;;10.92;72.20;98362.16;2794466;82;21108;-86
2022/04/07 01:37:25;;;;;;;9.28;4.37;;;;;;;10.93;72.14;98366.98;2780496;80;21698;-85
2022/04/07 01:41:27;;;;;;;8.38;4.30;;;;;;;10.96;72.35;98364.78;2802766;80;21599;-86
2022/04/07 01:45:31;;;;;;;4.87;4.15;;;;;;;10.93;72.39;98358.48;2744269;84;21099;-85
2022/04/07 01:49:36;;;;;;;7.30;5.08;;;;;;;10.96;72.60;98366.62;2715825;85;21042;-85
2022/04/07 01:53:38;;;;;;;9.45;5.30;;;;;;;10.93;72.76;98363.00;2717241;85;21062;-85
2022/04/07 01:57:40;;;;;;;7.22;5.05;;;;;;;10.97;72.77;98374.42;2712288;86;21018;-85
2022/04/07 02:01:42;;;;;;;6.65;4.70;;;;;;;10.95;72.84;98365.78;2792462;81;21122;-85
2022/04/07 02:05:43;;;;;;;8.65;4.28;;;;;;;10.93;72.71;98358.48;2827900;81;21015;-85
2022/04/07 02:09:44;;;;;;;7.62;3.30;;;;;;;10.93;73.03;98359.81;2842076;81;20991;-86
2022/04/07 02:13:46;;;;;;;4.45;4.05;;;;;;;10.88;72.97;98360.85;2817088;81;21551;-87
2022/04/07 02:17:47;;;;;;;6.20;4.78;;;;;;;10.89;72.88;98357.67;2813640;81;20994;-85
2022/04/07 02:21:49;;;;;;;7.70;4.17;;;;;;;10.81;73.07;98356.73;2803014;82;21081;-82
2022/04/07 02:25:50;;;;;;;5.03;4.05;;;;;;;10.81;72.88;98350.59;2778449;83;20995;-86
2022/04/07 02:29:52;;;;;;;3.77;3.47;;;;;;;10.77;72.97;98346.61;2808858;80;21035;-85
2022/04/07 02:33:54;;;;;;;4.22;3.62;;;;;;;10.77;72.79;98354.59;2741374;84;21056;-86
2022/04/07 02:38:00;;;;;;;5.53;4.95;;;;;;;10.74;72.82;98353.13;2734359;84;21101;-86
2022/04/07 02:42:01;;;;;;;;;;;;;;;10.70;72.70;98351.30;2730839;84;21569;-84
2022/04/07 02:46:04;;;;;;;5.25;3.87;;;;;;;10.66;72.91;98350.00;2722773;85;20098;-86
2022/04/07 02:50:07;;;;;;;6.15;4.97;;;;;;;10.64;72.77;98346.69;2725844;85;21045;-84
2022/04/07 02:54:08;;;;;;;7.10;6.40;;;;;;;10.60;72.83;98341.38;2701921;85;21693;-86
2022/04/07 02:58:10;;;;;;;8.25;7.15;;;;;;;10.56;72.88;98340.07;2735874;84;21028;-85
2022/04/07 03:02:12;;;;;;;8.13;5.28;;;;;;;10.54;72.90;98334.09;2814221;81;21016;-85
2022/04/07 03:06:13;;;;;;;8.55;5.33;;;;;;;10.55;72.80;98345.06;2823767;80;21055;-86
2022/04/07 03:10:15;;;;;;;12.30;5.90;;;;;;;10.50;72.89;98340.77;2834388;81;21040;-84
2022/04/07 03:14:16;;;;;;;7.47;6.60;;;;;;;10.46;72.89;98337.63;2810212;82;21081;-91
2022/04/07 03:18:18;;;;;;;9.35;6.03;;;;;;;10.38;73.17;98334.98;2777266;83;21060;-86
2022/04/07 03:22:19;;;;;;;14.25;8.33;;;;;;;10.31;73.92;98336.16;2739567;84;21676;-86
2022/04/07 03:26:21;;;;;;;7.03;6.12;;;;;;;10.29;74.23;98328.87;2676487;85;21018;-86
2022/04/07 03:30:22;;;;;;;5.05;4.00;;;;;;;10.31;74.33;98324.20;2720268;84;21096;-86
2022/04/07 03:34:24;;;;;;;5.25;4.75;;;;;;;10.29;74.47;98325.69;2716584;85;21607;-86
2022/04/07 03:38:26;;;;;;;11.70;5.75;;;;;;;10.31;74.56;98318.89;2743935;83;21571;-86
2022/04/07 03:42:27;;;;;;;7.87;5.92;;;;;;;10.28;74.90;98312.59;2711076;85;21016;-85
2022/04/07 03:46:29;;;;;;;5.90;5.05;;;;;;;10.27;74.91;98313.59;2718520;85;21074;-85
2022/04/07 03:50:30;;;;;;;6.15;5.25;;;;;;;10.29;74.98;98311.08;2725018;84;21046;-85
2022/04/07 03:54:32;;;;;;;8.03;5.12;;;;;;;10.24;75.38;98310.77;2761983;84;21106;-86
2022/04/07 03:58:33;;;;;;;9.30;6.33;;;;;;;10.27;75.32;98302.45;2743585;82;21089;-90
2022/04/07 04:02:34;;;;;;;10.55;6.97;;;;;;;10.27;75.34;98306.95;2730685;85;21585;-87
2022/04/07 04:06:36;;;;;;;10.30;6.50;;;;;;;10.26;75.31;98298.66;2754125;83;21090;-86
2022/04/07 04:10:37;;;;;;;7.65;5.30;;;;;;;10.21;75.35;98304.97;2743895;82;21073;-86
2022/04/07 04:14:39;;;;;;;6.30;5.70;;;;;;;10.12;75.55;98295.72;2746432;83;21059;-88
2022/04/07 04:18:41;;;;;;;10.65;5.75;;;;;;;10.11;75.71;98283.92;2737432;85;21555;-88
2022/04/07 04:22:42;;;;;;;6.53;5.08;;;;;;;10.10;75.95;98282.27;2774912;83;21048;-88
2022/04/07 04:26:44;;;;;;;10.95;6.78;;;;;;;10.12;75.90;98281.10;2767500;83;21095;-88
2022/04/07 04:30:45;;;;;;;7.55;5.72;;;;;;;10.07;76.51;98281.28;2758338;84;21002;-89
2022/04/07 04:34:47;;;;;;;7.83;6.35;;;;;;;10.02;76.65;98281.79;2723551;85;21040;-88
2022/04/07 04:38:49;;;;;;;9.48;5.35;;;;;;;9.97;76.97;98280.16;2799633;82;21041;-87
2022/04/07 04:42:51;;;;;;;7.55;5.50;;;;;;;10.00;76.94;98282.47;2803474;82;21507;-85
2022/04/07 04:46:52;;;;;;;9.25;6.53;;;;;;;10.11;76.49;98278.60;2791343;82;21060;-85
2022/04/07 04:50:55;;;;;;;7.47;6.00;;;;;;;10.14;76.31;98284.41;2796731;82;21017;-85
2022/04/07 04:54:57;;;;;;;8.88;5.78;;;;;;;10.16;76.23;98270.97;2797497;83;21104;-85
2022/04/07 04:58:58;;;;;;;6.85;5.47;;;;;;;10.25;75.89;98270.43;2839011;81;21167;-84
2022/04/07 05:03:00;;;;;;;9.88;5.25;;;;;;;10.28;75.67;98263.44;2823208;81;22920;-85
2022/04/07 05:07:01;;;;;;;5.12;4.15;;;;;;;10.31;75.47;98256.44;2801253;82;21077;-85
2022/04/07 05:11:03;;;;;;;6.72;5.22;;;;;;;10.34;75.42;98255.28;2817681;80;21554;-86
2022/04/07 05:15:07;;;;;;;9.48;5.62;;;;;;;10.39;75.36;98255.05;2736078;83;21089;-85
2022/04/07 05:19:08;;;;;;;6.50;5.83;;;;;;;10.43;75.12;98260.89;2806251;82;21097;-85
2022/04/07 05:23:10;;;;;;;8.33;6.08;;;;;;;10.50;75.09;98259.70;2790144;81;21091;-85
2022/04/07 05:27:11;;;;;;;9.18;5.97;;;;;;;10.58;74.99;98252.98;2778947;82;21025;-85
2022/04/07 05:31:13;;;;;;;6.90;6.03;;;;;;;10.64;75.08;98254.96;2797635;82;21039;-86
2022/04/07 05:35:16;;;;;;;7.72;5.10;;;;;;;10.62;75.01;98253.47;2762466;83;21080;-85
2022/04/07 05:39:17;;;;;;;5.05;4.50;;;;;;;10.62;75.24;98241.02;2853055;81;21043;-84
2022/04/07 05:43:19;;;;;;;5.37;4.30;;;;;;;10.58;75.81;98247.67;2819748;80;21068;-85
2022/04/07 05:47:20;;;;;;;6.37;5.78;;;;;;;10.61;75.60;98239.37;2831826;81;21037;-85
2022/04/07 05:51:22;;;;;;;5.95;4.53;;;;;;;10.62;75.41;98239.69;2801841;81;21031;-85
2022/04/07 05:55:23;;;;;;;5.35;4.85;;;;;;;10.69;75.39;98233.98;2814743;82;21084;-85
2022/04/07 05:59:24;;;;;;;14.68;6.90;;;;;;;10.81;75.55;98242.89;2749129;83;21536;-85
2022/04/07 06:03:26;;;;;;;7.53;6.20;;;;;;;11.21;76.71;98244.05;2694310;84;21070;-85
2022/04/07 06:07:27;;;;;;;12.70;6.10;;;;;;;11.96;76.72;98238.77;2693609;85;21524;-85
2022/04/07 06:11:29;;;;;;;7.10;4.92;;;;;;;12.63;73.98;98228.92;2706623;85;21041;-85
2022/04/07 06:15:30;;;;;;;5.30;3.92;;;;;;;13.19;70.89;98230.53;2714089;85;21095;-85
2022/04/07 06:19:32;;;;;;;6.67;5.05;;;;;;;13.50;69.27;98220.81;2781859;84;21061;-85
2022/04/07 06:23:33;;;;;;;4.20;3.80;;;;;;;13.77;67.84;98218.82;2759169;83;21088;-85
2022/04/07 06:27:37;;;;;;;6.10;3.95;;;;;;;13.99;66.81;98214.21;2819712;80;21032;-85
2022/04/07 06:31:38;;;;;;;5.97;3.90;;;;;;;14.23;66.34;98208.83;2777989;82;21061;-85
2022/04/07 06:35:39;;;;;;;6.50;4.00;;;;;;;14.52;65.45;98203.36;2837538;81;21052;-85
2022/04/07 06:39:41;;;;;;;4.42;3.77;;;;;;;14.89;64.44;98210.55;2822835;81;21064;-85
2022/04/07 06:43:42;;;;;;;5.85;3.12;;;;;;;15.22;63.77;98200.36;2801946;82;21032;-85
2022/04/07 06:47:43;;;;;;;4.65;3.33;;;;;;;15.47;63.08;98201.04;2803567;82;21033;-85
2022/04/07 06:51:46;;;;;;;4.37;2.85;;;;;;;15.51;63.30;98192.88;2794069;83;21084;-86
2022/04/07 06:55:47;;;;;;;6.05;3.25;;;;;;;15.57;61.65;98183.19;2831010;80;21165;-85
2022/04/07 06:59:49;;;;;;;5.17;2.65;;;;;;;15.77;62.26;98179.63;2812605;81;21030;-85
2022/04/07 07:03:50;;;;;;;5.75;2.85;;;;;;;15.90;62.01;98171.58;2808323;82;21045;-85
2022/04/07 07:07:52;;;;;;;2.95;2.47;;;;;;;16.20;62.75;98159.48;2803576;82;21061;-84
2022/04/07 07:11:54;;;;;;;2.80;2.15;;;;;;;16.24;61.96;98142.75;2822270;80;21016;-85
2022/04/07 07:15:55;;;;;;;2.22;1.92;;;;;;;16.17;61.31;98139.80;2801883;82;21060;-85
2022/04/07 07:20:03;;;;;;;1.92;1.45;;;;;;;16.21;60.93;98127.59;2775960;82;21083;-85
2022/04/07 07:24:05;;;;;;;3.70;1.65;;;;;;;16.27;61.81;98132.09;2770719;82;21034;-86
2022/04/07 07:28:08;;;;;;;2.83;1.40;;;;;;;16.48;62.43;98134.12;2799354;82;21589;-85
2022/04/07 07:32:10;;;;;;;1.12;0.55;;;;;;;16.50;62.50;98135.56;2818951;81;21016;-85
2022/04/07 07:36:11;;;;;;;1.12;1.02;;;;;;;16.24;61.41;98123.14;2810960;81;21084;-85
2022/04/07 07:40:13;;;;;;;0.60;0.50;;;;;;;16.20;61.84;98116.56;2833237;82;21480;-85
2022/04/07 07:44:14;;;;;;;2.27;2.08;;;;;;;16.05;61.84;98128.40;2813116;80;21062;-84
2022/04/07 07:48:16;;;;;;;4.33;1.95;;;;;;;16.12;62.32;98137.25;2829202;81;21024;-85
2022/04/07 07:52:17;;;;;;;1.98;1.37;;;;;;;16.16;63.21;98134.13;2843984;81;21118;-85
2022/04/07 07:56:18;;;;;;;1.27;0.85;;;;;;;16.07;61.16;98114.25;2797505;81;21084;-85
2022/04/07 08:00:23;;;;;;;0.57;0.42;;;;;;;16.17;62.06;98119.68;2800640;81;21002;-85
2022/04/07 08:04:24;;;;;;;0.88;0.88;;;;;;;16.22;59.72;98115.83;2801007;81;21007;-85
2022/04/07 08:08:25;;;;;;;3.05;1.20;;;;;;;16.33;59.90;98101.73;2808210;81;21028;-85
2022/04/07 08:12:27;;;;;;;3.20;1.00;;;;;;;16.47;59.48;98096.25;2799641;82;21050;-85
2022/04/07 08:16:30;;;;;;;1.30;0.82;;;;;;;16.63;59.25;98098.40;2795257;82;21593;-85
2022/04/07 08:20:32;;;;;;;1.45;0.90;;;;;;;16.68;58.32;98089.16;2802162;81;21034;-85
2022/04/07 08:24:34;;;;;;;1.05;0.75;;;;;;;16.85;58.19;98090.78;2821815;80;21182;-85
2022/04/07 08:28:35;;;;;;;0.72;0.30;;;;;;;17.05;59.16;98088.97;2816336;82;21034;-85
2022/04/07 08:32:37;;;;;;;1.05;0.82;;;;;;;16.88;56.77;98092.19;2789392;82;21056;-85
2022/04/07 08:36:40;;;;;;;0.88;0.68;;;;;;;16.94;55.67;98085.12;2814107;81;21616;-85
2022/04/07 08:40:47;;;;;;;1.40;0.90;;;;;;;16.90;56.07;98081.24;2794606;82;21088;-86
2022/04/07 08:44:46;;;;;;;0.80;0.45;;;;;;;16.92;55.75;98073.28;2790306;80;21056;-85
2022/04/07 08:48:48;;;;;;;0.40;0.40;;;;;;;17.21;56.79;98078.19;2803620;82;21041;-85
2022/04/07 08:52:50;;;;;;;1.15;0.88;;;;;;;16.97;55.94;98084.67;2791915;82;21113;-85
2022/04/07 08:56:51;;;;;;;2.12;0.68;;;;;;;16.73;55.46;98064.35;2775193;82;21136;-85
2022/04/07 09:00:53;;;;;;;0.57;0.47;;;;;;;16.50;56.96;98071.16;2804888;81;21107;-85
2022/04/07 09:05:01;;;;;;;0.42;0.42;;;;;;;16.21;56.58;98068.08;2800744;82;21178;-85
2022/04/07 09:09:16;;;;;;;0.60;0.42;;;;;;;16.07;57.34;98063.30;2784511;82;21533;-85
2022/04/07 09:13:18;;;;;;;0.88;0.50;;;;;;;15.84;57.88;98055.27;2808357;81;21490;-85
2022/04/07 09:17:20;;;;;;;2.37;1.15;;;;;;;15.63;58.11;98054.25;2830053;81;20997;-85
2022/04/07 09:21:27;;;;;;;1.92;0.30;;;;;;;15.68;59.13;98050.40;2825577;81;21679;-85
2022/04/07 09:25:29;;;;;;;1.10;0.55;;;;;;;15.70;58.79;98042.97;2811849;82;21105;-85
2022/04/07 09:29:43;;;;;;;1.95;0.50;;;;;;;15.91;59.72;98032.98;2812084;82;21037;-85
2022/04/07 09:33:54;;;;;;;1.40;0.70;;;;;;;16.11;58.50;98025.66;2818747;81;21056;-85
2022/04/07 09:38:02;;;;;;;0.98;0.60;;;;;;;16.33;57.71;98019.91;2826878;81;21013;-85
2022/04/07 09:42:25;;;;;;;0.88;0.62;;;;;;;16.25;56.23;98008.94;2791237;81;20999;-85
2022/04/07 09:46:37;;;;;;;0.35;0.30;;;;;;;16.39;57.59;98001.59;2808656;82;21734;-85
2022/04/07 09:50:38;;;;;;;1.10;0.40;;;;;;;16.86;56.25;97993.59;2813741;81;21020;-85
2022/04/07 09:54:41;;;;;;;2.77;0.70;;;;;;;17.02;56.55;97969.41;2807256;82;21115;-85
2022/04/07 09:58:44;;;;;;;1.15;0.55;;;;;;;17.23;55.45;97969.98;2799042;82;21575;-85
2022/04/07 10:23:56;;;;;;;0.42;0.23;;;;;;;17.75;54.51;97931.84;2900979;81;22936;-82
2022/04/07 10:28:02;;;;;;;0.80;0.20;;;;;;;17.76;53.55;97910.63;2850331;83;21058;-82
2022/04/07 10:32:16;;;;;;;0.50;0.50;;;;;;;17.80;53.15;97898.34;2854228;83;21031;-82
2022/04/07 10:36:23;;;;;;;1.00;0.50;;;;;;;17.79;53.43;97889.98;2841375;83;21063;-82
2022/04/07 10:40:49;;;;;;;0.88;0.20;;;;;;;18.01;54.74;97888.62;2853469;83;21027;-82
2022/04/07 10:45:05;;;;;;;1.30;0.30;;;;;;;18.35;53.18;97885.65;2845019;83;21046;-83
2022/04/07 10:49:11;;;;;;;0.80;0.45;;;;;;;18.33;51.45;97884.23;2838455;83;21003;-82
2022/04/07 10:53:38;;;;;;;0.25;0.20;;;;;;;18.07;53.64;97868.33;2858819;83;21052;-82
2022/04/07 10:58:12;;;;;;;0.35;0.30;;;;;;;17.78;52.44;97864.66;2853209;83;21138;-83
2022/04/07 11:02:15;;;;;;;0.10;0.10;;;;;;;17.77;53.99;97842.86;2836860;83;21004;-82
2022/04/07 11:06:23;;;;;;;0.10;0.10;;;;;;;17.77;53.92;97831.59;2847844;83;21098;-82
2022/04/07 11:10:47;;;;;;;3.45;0.55;;;;;;;17.89;53.56;97812.77;2754823;85;21060;-83
2022/04/07 11:14:51;;;;;;;0.50;0.40;;;;;;;18.18;52.53;97797.28;2765178;85;21047;-83
2022/04/07 11:19:15;;;;;;;0.57;0.40;;;;;;;18.32;53.03;97804.56;2765443;85;21210;-83
2022/04/07 11:23:38;;;;;;;5.12;0.70;;;;;;;18.59;54.88;97787.35;2750393;84;21031;-83
2022/04/07 11:27:42;;;;;;;1.47;0.17;;;;;;;18.53;52.70;97790.47;2720073;86;21051;-83
2022/04/07 11:31:49;;;;;;;0.45;0.45;;;;;;;18.38;52.25;97787.49;2730485;87;21043;-82
2022/04/07 11:36:07;;;;;;;1.85;0.20;;;;;;;18.46;51.41;97793.00;2760311;85;20992;-82
2022/04/07 11:40:10;;;;;;;1.98;0.33;;;;;;;18.80;51.34;97771.58;2759371;83;20984;-82
2022/04/07 11:44:12;;;;;;;1.82;0.47;;;;;;;18.92;51.49;97775.05;2736393;85;21060;-82
2022/04/07 11:48:13;;;;;;;1.20;0.30;;;;;;;18.76;51.71;97767.20;2760535;86;21063;-83
2022/04/07 11:52:15;;;;;;;0.70;0.30;;;;;;;18.52;51.06;97758.42;2750970;85;21008;-83
2022/04/07 11:56:22;;;;;;;0.65;0.40;;;;;;;18.79;53.61;97753.80;2763164;83;21424;-83
2022/04/07 12:00:30;;;;;;;0.95;0.40;;;;;;;18.68;50.76;97741.50;2744476;85;21076;-82
2022/04/07 12:04:31;;;;;;;0.85;0.37;;;;;;;18.44;50.82;97736.73;2733798;86;21039;-82
2022/04/07 12:08:33;;;;;;;1.85;0.88;;;;;;;18.44;51.60;97727.83;2772442;83;21068;-82
2022/04/07 12:12:34;;;;;;;8.40;0.50;;;;;;;18.54;51.42;97713.23;2705497;85;21056;-83
2022/04/07 12:16:48;;;;;;;2.77;0.62;;;;;;;18.42;51.44;97709.25;2749498;86;20978;-83
2022/04/07 12:21:00;;;;;;;1.22;0.37;;;;;;;18.46;51.20;97710.40;2749795;85;21429;-83
2022/04/07 12:25:05;;;;;;;1.95;0.70;;;;;;;18.67;50.55;97684.68;2781184;85;21006;-83
2022/04/07 12:29:08;;;;;;;2.45;1.52;;;;;;;18.82;51.61;97677.90;2792124;85;21305;-83
2022/04/07 12:33:09;;;;;;;0.62;0.53;;;;;;;19.10;52.08;97663.57;2768223;83;21072;-83
2022/04/07 12:37:27;;;;;;;2.25;1.02;;;;;;;19.37;51.69;97647.25;2760670;85;21697;-83
2022/04/07 12:41:46;;;;;;;0.72;0.60;;;;;;;19.36;50.10;97630.28;2760697;85;21074;-83
2022/04/07 12:45:57;;;;;;;1.15;0.85;;;;;;;19.44;48.61;97615.53;2757405;85;21057;-82
2022/04/07 12:50:02;;;;;;;1.80;0.93;;;;;;;19.55;47.97;97603.83;2728449;85;21032;-82
2022/04/07 12:54:12;;;;;;;;;;;;;;;19.72;49.44;97598.92;2769034;83;21063;-82
2022/04/07 12:58:14;;;;;;;1.52;0.95;;;;;;;19.46;48.87;97590.52;2778427;83;20124;-82
2022/04/07 13:02:15;;;;;;;1.95;1.12;;;;;;;19.66;49.63;97584.55;2751402;86;21053;-82
2022/04/07 13:06:16;;;;;;;1.52;0.50;;;;;;;19.80;49.91;97571.48;2731704;85;21096;-82
2022/04/07 13:10:20;;;;;;;1.90;0.50;;;;;;;20.02;49.66;97557.73;2756120;85;21082;-83
2022/04/07 13:14:21;;;;;;;3.80;1.15;;;;;;;20.00;48.43;97549.08;2742518;84;21054;-82
2022/04/07 13:18:22;;;;;;;4.90;0.95;;;;;;;19.72;49.04;97538.77;2727938;84;20991;-82
2022/04/07 13:22:25;;;;;;;0.93;0.50;;;;;;;19.66;49.60;97521.73;2744761;85;21014;-81
2022/04/07 13:26:27;;;;;;;0.53;0.30;;;;;;;19.60;49.03;97515.98;2724762;86;20999;-83
2022/04/07 13:30:28;;;;;;;0.60;0.30;;;;;;;19.49;49.20;97514.54;2764258;84;21004;-81
2022/04/07 13:34:29;;;;;;;1.12;0.20;;;;;;;19.34;48.97;97511.66;2764507;85;21700;-82
2022/04/07 13:38:32;;;;;;;1.85;1.05;;;;;;;19.18;50.61;97508.77;2759289;84;21053;-82
2022/04/07 13:53:40;;;;;;;1.15;0.60;;;;;;;18.62;50.62;97481.32;2777324;83;21063;-81
2022/04/07 13:57:41;;;;;;;8.10;1.37;;;;;;;18.47;51.08;97482.44;2751329;85;21068;-81
2022/04/07 14:01:42;;;;;;;1.15;0.88;;;;;;;18.28;51.28;97482.72;2754546;85;21027;-81
2022/04/07 14:05:47;;;;;;;2.77;0.75;;;;;;;18.16;51.62;97464.48;2754951;85;21070;-81
2022/04/07 14:09:49;;;;;;;1.25;1.10;;;;;;;18.19;52.39;97459.95;2740212;85;21419;-81
2022/04/07 14:13:51;;;;;;;1.82;0.80;;;;;;;18.05;52.75;97457.58;2740606;85;21577;-81
2022/04/07 14:17:52;;;;;;;2.40;0.50;;;;;;;17.97;51.95;97441.28;2734548;86;21078;-81
2022/04/07 14:21:57;;;;;;;0.45;0.42;;;;;;;17.94;52.97;97436.40;2741362;85;21026;-81
2022/04/07 14:25:59;;;;;;;1.17;0.85;;;;;;;17.94;53.54;97416.77;2718645;85;21031;-81
2022/04/07 14:30:00;;;;;;;1.17;0.85;;;;;;;17.88;53.64;97425.80;2737544;85;21083;-81
2022/04/07 14:34:03;;;;;;;0.75;0.42;;;;;;;17.95;53.79;97426.47;2737423;85;21066;-81
2022/04/07 14:38:04;;;;;;;1.25;0.70;;;;;;;17.66;54.16;97443.98;2732540;85;21507;-81
2022/04/07 14:53:14;;;;;;;0.75;0.33;;;;;;;17.64;56.12;97428.62;2710791;85;21186;-80
2022/04/07 14:57:26;;;;;;;1.47;0.60;;;;;;;17.44;55.94;97401.68;2736300;85;21043;-81
2022/04/07 15:01:29;;;;;;;1.70;0.90;;;;;;;17.35;55.89;97401.80;2729055;85;21063;-80
2022/04/07 15:05:31;;;;;;;1.67;1.02;;;;;;;17.13;56.55;97395.22;2731975;85;21487;-81
2022/04/07 15:09:34;;;;;;;1.05;0.50;;;;;;;17.11;57.40;97385.78;2730772;85;21091;-81
2022/04/07 15:13:35;;;;;;;1.17;0.75;;;;;;;16.93;58.03;97381.36;2726668;85;21043;-81
2022/04/07 15:17:37;;;;;;;1.45;0.78;;;;;;;16.91;57.95;97381.63;2735680;85;21035;-81
2022/04/07 15:21:38;;;;;;;2.15;0.93;;;;;;;16.85;58.17;97378.52;2736688;85;21036;-81
2022/04/07 15:25:39;;;;;;;1.40;0.50;;;;;;;16.81;58.69;97373.35;2732617;85;21042;-80
2022/04/07 15:29:41;;;;;;;1.07;0.68;;;;;;;16.72;58.93;97362.71;2709839;85;21497;-81
2022/04/07 15:33:44;;;;;;;3.02;0.90;;;;;;;16.66;59.27;97363.92;2710599;85;20996;-81
2022/04/07 15:37:45;;;;;;;2.45;1.15;;;;;;;16.54;59.20;97365.84;2727354;86;21629;-82
2022/04/07 16:07:55;;;;;;;2.90;1.72;;;;;;;15.87;62.26;97257.94;2786397;83;21155;-81
2022/04/07 16:11:57;;;;;;;5.90;1.07;;;;;;;15.74;62.35;97250.13;2806405;82;21642;-80
2022/04/07 16:15:58;;;;;;;2.40;1.82;;;;;;;15.73;62.87;97239.95;2819911;83;21047;-81
2022/04/07 16:20:01;;;;;;;2.58;1.60;;;;;;;15.70;62.62;97222.97;2832796;83;21079;-81
2022/04/07 16:24:03;;;;;;;2.85;1.32;;;;;;;15.73;62.46;97220.36;2825650;84;21063;-82
2022/04/07 16:28:06;;;;;;;3.55;2.12;;;;;;;15.65;61.87;97216.17;2821072;83;21063;-82
2022/04/07 16:32:08;;;;;;;2.77;1.50;;;;;;;15.70;62.32;97221.13;2881196;81;21071;-82
2022/04/07 16:36:09;;;;;;;1.25;0.80;;;;;;;15.59;62.23;97221.13;2870568;82;21006;-81
2022/04/07 16:40:11;;;;;;;6.62;1.65;;;;;;;15.59;62.62;97224.61;2867985;82;21071;-81
2022/04/07 16:44:12;;;;;;;1.50;0.62;;;;;;;15.48;63.60;97219.55;2832880;83;20991;-82
2022/04/07 16:48:14;;;;;;;2.85;1.25;;;;;;;15.41;63.48;97217.52;2827031;84;21036;-82
2022/04/07 16:52:15;;;;;;;1.32;1.02;;;;;;;15.33;64.95;97190.56;2865212;81;21039;-81
2022/04/07 16:56:16;;;;;;;2.30;1.72;;;;;;;15.23;66.11;97187.13;2858497;81;21719;-82
2022/04/07 17:00:18;;;;;;;5.17;2.08;;;;;;;15.05;66.33;97179.19;2881339;81;21531;-82
2022/04/07 17:04:19;;;;;;;3.17;1.65;;;;;;;14.95;66.53;97179.25;2881583;81;21077;-82
2022/04/07 17:08:20;;;;;;;3.75;1.87;;;;;;;14.98;66.91;97156.03;2875955;81;21102;-82
2022/04/07 17:12:25;;;;;;;1.22;1.00;;;;;;;14.91;66.69;97159.33;2861679;81;21060;-81
2022/04/07 17:16:26;;;;;;;3.25;1.22;;;;;;;14.86;67.10;97175.27;2834355;84;21051;-82
2022/04/07 17:20:27;;;;;;;2.40;1.25;;;;;;;14.89;67.24;97186.84;2830297;84;21031;-82
2022/04/07 17:24:28;;;;;;;2.17;1.35;;;;;;;14.79;68.97;97178.58;2858848;82;21007;-82
2022/04/07 17:28:29;;;;;;;3.52;1.85;;;;;;;14.69;69.96;97157.16;2857991;82;21523;-82
2022/04/07 17:32:31;;;;;;;2.42;1.40;;;;;;;14.64;70.01;97166.41;2853027;81;21036;-82
2022/04/07 17:36:33;;;;;;;2.50;0.98;;;;;;;14.61;72.08;97170.05;2837570;84;21035;-81
2022/04/07 17:40:34;;;;;;;3.02;1.47;;;;;;;14.44;74.96;97172.03;2871731;82;21063;-81
2022/04/07 17:44:35;;;;;;;0.62;0.60;;;;;;;14.29;75.72;97233.94;2815737;84;20995;-81
2022/04/07 17:48:38;;;;;;;10.60;2.35;;;;;;;13.29;68.44;97429.59;2819851;83;21058;-81
2022/04/07 17:52:39;;;;;;;2.27;0.57;;;;;;;11.81;78.97;97427.27;2807300;84;21031;-81
2022/04/07 17:56:41;;;;;;;2.92;0.65;;;;;;;10.54;86.02;97435.16;2812187;83;21038;-86
2022/04/07 18:00:43;;;;;;;10.50;2.40;;;;;;;9.94;91.87;97398.86;2831483;83;21000;-81
2022/04/07 18:04:45;;;;;;;4.42;1.77;;;;;;;9.82;93.02;97434.41;2874862;81;21582;-81
2022/04/07 18:08:46;;;;;;;2.95;1.72;;;;;;;9.85;95.17;97409.63;2812286;84;21598;-81
2022/04/07 18:12:48;;;;;;;1.92;1.07;;;;;;;9.79;96.11;97385.67;2746802;85;23103;-81
2022/04/07 18:16:49;;;;;;;0.90;0.72;;;;;;;9.77;97.16;97399.12;2842517;82;21867;-81
2022/04/07 18:33:21;;;;;;;5.35;1.17;;;;;;;10.05;100.00;97290.78;2898924;80;21051;-81
2022/04/07 18:37:22;;;;;;;0.23;0.20;;;;;;;10.19;98.58;97319.55;2943240;79;21005;-82
2022/04/07 18:41:23;;;;;;;1.57;0.47;;;;;;;10.29;96.89;97325.31;2932038;79;21556;-82
2022/04/07 18:45:24;;;;;;;2.47;0.75;;;;;;;10.45;95.93;97331.87;2932034;79;20991;-82
2022/04/07 18:49:25;;;;;;;1.30;0.35;;;;;;;10.49;94.06;97323.80;2932080;79;21064;-82
2022/04/07 18:53:28;;;;;;;0.82;0.33;;;;;;;10.65;92.22;97303.53;2945541;80;21014;-82
2022/04/07 18:57:29;;;;;;;0.82;0.50;;;;;;;10.75;90.54;97306.30;2928109;79;20975;-82
2022/04/07 19:01:31;;;;;;;1.75;0.70;;;;;;;10.84;88.55;97323.20;2941829;80;21491;-84
2022/04/07 19:05:32;;;;;;;1.95;0.42;;;;;;;11.00;88.67;97308.73;2945854;79;21670;-82
2022/04/07 19:09:33;;;;;;;1.32;1.20;;;;;;;11.14;87.85;97310.06;2954401;80;20951;-82
2022/04/07 19:13:34;;;;;;;1.52;0.57;;;;;;;11.23;86.78;97340.80;2877640;81;20987;-82
2022/04/07 19:17:35;;;;;;;2.05;1.10;;;;;;;11.36;86.67;97344.48;2863245;81;20999;-82
2022/04/07 19:21:37;;;;;;;1.45;0.50;;;;;;;11.49;86.21;97362.30;2845221;82;21724;-82
2022/04/07 19:25:38;;;;;;;3.62;0.50;;;;;;;11.54;85.48;97357.20;2848050;82;21035;-81
2022/04/07 19:29:39;;;;;;;2.47;1.00;;;;;;;11.60;85.90;97366.22;2905105;81;21074;-82
2022/04/07 19:33:40;;;;;;;3.60;0.68;;;;;;;11.59;85.73;97381.36;2868569;82;21133;-82
2022/04/07 19:37:41;;;;;;;0.80;0.60;;;;;;;11.65;85.50;97335.80;2866825;82;22091;-82
2022/04/07 19:41:43;;;;;;;3.10;0.68;;;;;;;11.67;84.66;97340.41;2895704;81;20975;-82
2022/04/07 19:45:45;;;;;;;1.15;1.05;;;;;;;11.69;84.89;97349.00;2900043;81;21031;-82
2022/04/07 19:49:50;;;;;;;0.78;0.62;;;;;;;11.77;83.75;97378.61;2888407;81;21023;-82
2022/04/07 19:53:51;;;;;;;1.00;0.68;;;;;;;11.80;83.70;97375.03;2895888;81;21127;-82
2022/04/07 19:57:52;;;;;;;2.20;1.12;;;;;;;11.86;81.86;97378.69;2862886;81;20996;-83
2022/04/07 20:01:54;;;;;;;0.60;0.57;;;;;;;11.91;79.61;97316.82;2877242;81;21054;-82
2022/04/07 20:05:55;;;;;;;1.55;0.88;;;;;;;11.97;80.41;97342.62;2884567;81;21546;-82
2022/04/07 20:09:57;;;;;;;2.90;0.30;;;;;;;11.92;80.15;97339.27;2904581;81;21095;-82
2022/04/07 20:13:59;;;;;;;1.98;0.50;;;;;;;11.82;78.64;97332.20;2900644;81;21574;-82
2022/04/07 20:18:00;;;;;;;2.30;1.25;;;;;;;11.78;79.41;97330.97;2895273;81;21039;-82
2022/04/07 20:22:01;;;;;;;1.75;1.25;;;;;;;11.63;79.55;97337.85;2888954;81;21014;-82
2022/04/07 20:26:04;;;;;;;1.92;1.25;;;;;;;11.51;79.76;97346.97;2895001;81;21003;-82